sensor_id;sensor_type;location;lat;lon;timestamp;P1;durP1;ratioP1;P2;durP2;ratioP2
27161;SDS011;54464;50.558;9.704;2023-04-30T00:00:21;22.13;;;19.73;;
27161;SDS011;54464;50.558;9.704;2023-04-30T00:02:46;21.17;;;19.07;;
27161;SDS011;54464;50.558;9.704;2023-04-30T00:05:12;22.10;;;19.53;;
27161;SDS011;54464;50.558;9.704;2023-04-30T00:07:37;21.87;;;19.57;;
27161;SDS011;54464;50.558;9.704;2023-04-30T00:10:07;21.03;;;18.83;;
27161;SDS011;54464;50.558;9.704;2023-04-30T00:12:36;20.20;;;18.10;;
27161;SDS011;54464;50.558;9.704;2023-04-30T00:15:03;21.30;;;19.10;;
27161;SDS011;54464;50.558;9.704;2023-04-30T00:17:28;21.70;;;19.50;;
27161;SDS011;54464;50.558;9.704;2023-04-30T00:19:54;23.80;;;20.03;;
27161;SDS011;54464;50.558;9.704;2023-04-30T00:22:20;21.37;;;18.97;;
27161;SDS011;54464;50.558;9.704;2023-04-30T00:24:45;21.37;;;18.97;;
27161;SDS011;54464;50.558;9.704;2023-04-30T00:27:11;22.47;;;19.33;;
27161;SDS011;54464;50.558;9.704;2023-04-30T00:29:36;23.93;;;19.57;;
27161;SDS011;54464;50.558;9.704;2023-04-30T00:32:02;22.37;;;19.40;;
27161;SDS011;54464;50.558;9.704;2023-04-30T00:34:28;20.33;;;18.10;;
27161;SDS011;54464;50.558;9.704;2023-04-30T00:36:54;20.20;;;17.83;;
27161;SDS011;54464;50.558;9.704;2023-04-30T00:39:19;21.17;;;18.90;;
27161;SDS011;54464;50.558;9.704;2023-04-30T00:41:45;23.00;;;19.30;;
27161;SDS011;54464;50.558;9.704;2023-04-30T00:44:10;22.60;;;20.20;;
27161;SDS011;54464;50.558;9.704;2023-04-30T00:46:36;27.93;;;22.00;;
27161;SDS011;54464;50.558;9.704;2023-04-30T00:49:02;23.83;;;19.20;;
27161;SDS011;54464;50.558;9.704;2023-04-30T00:51:30;21.83;;;19.13;;
27161;SDS011;54464;50.558;9.704;2023-04-30T00:53:57;23.30;;;18.73;;
27161;SDS011;54464;50.558;9.704;2023-04-30T00:56:25;22.07;;;18.47;;
27161;SDS011;54464;50.558;9.704;2023-04-30T00:58:53;21.73;;;17.87;;
27161;SDS011;54464;50.558;9.704;2023-04-30T01:01:22;19.20;;;17.20;;
27161;SDS011;54464;50.558;9.704;2023-04-30T01:03:52;20.77;;;18.53;;
27161;SDS011;54464;50.558;9.704;2023-04-30T01:06:18;22.20;;;18.50;;
27161;SDS011;54464;50.558;9.704;2023-04-30T01:08:44;23.93;;;19.30;;
27161;SDS011;54464;50.558;9.704;2023-04-30T01:13:58;19.80;;;17.70;;
27161;SDS011;54464;50.558;9.704;2023-04-30T01:16:33;20.10;;;18.00;;
27161;SDS011;54464;50.558;9.704;2023-04-30T01:19:04;19.03;;;17.13;;
27161;SDS011;54464;50.558;9.704;2023-04-30T01:21:36;19.70;;;17.60;;
27161;SDS011;54464;50.558;9.704;2023-04-30T01:24:12;18.37;;;16.33;;
27161;SDS011;54464;50.558;9.704;2023-04-30T01:29:55;19.50;;;16.97;;
27161;SDS011;54464;50.558;9.704;2023-04-30T01:32:22;17.43;;;15.73;;
27161;SDS011;54464;50.558;9.704;2023-04-30T01:34:48;18.70;;;16.70;;
27161;SDS011;54464;50.558;9.704;2023-04-30T01:40:27;19.03;;;17.03;;
27161;SDS011;54464;50.558;9.704;2023-04-30T01:54:05;19.43;;;17.43;;
27161;SDS011;54464;50.558;9.704;2023-04-30T01:56:42;20.43;;;18.17;;
27161;SDS011;54464;50.558;9.704;2023-04-30T01:59:12;19.97;;;17.87;;
27161;SDS011;54464;50.558;9.704;2023-04-30T02:01:39;22.90;;;18.77;;
27161;SDS011;54464;50.558;9.704;2023-04-30T02:04:05;20.23;;;17.90;;
27161;SDS011;54464;50.558;9.704;2023-04-30T02:06:31;20.47;;;18.30;;
27161;SDS011;54464;50.558;9.704;2023-04-30T02:08:57;19.23;;;17.30;;
27161;SDS011;54464;50.558;9.704;2023-04-30T02:11:27;20.17;;;18.07;;
27161;SDS011;54464;50.558;9.704;2023-04-30T02:13:53;19.40;;;17.47;;
27161;SDS011;54464;50.558;9.704;2023-04-30T02:16:19;20.83;;;18.60;;
27161;SDS011;54464;50.558;9.704;2023-04-30T02:18:44;21.27;;;18.97;;
27161;SDS011;54464;50.558;9.704;2023-04-30T02:21:10;22.37;;;19.70;;
27161;SDS011;54464;50.558;9.704;2023-04-30T02:23:36;22.60;;;20.20;;
27161;SDS011;54464;50.558;9.704;2023-04-30T02:26:02;22.97;;;20.67;;
27161;SDS011;54464;50.558;9.704;2023-04-30T02:28:27;24.23;;;20.33;;
27161;SDS011;54464;50.558;9.704;2023-04-30T02:30:53;25.97;;;21.23;;
27161;SDS011;54464;50.558;9.704;2023-04-30T02:33:18;23.33;;;20.73;;
27161;SDS011;54464;50.558;9.704;2023-04-30T02:35:44;24.33;;;21.73;;
27161;SDS011;54464;50.558;9.704;2023-04-30T02:38:10;23.03;;;20.53;;
27161;SDS011;54464;50.558;9.704;2023-04-30T02:40:36;22.97;;;20.80;;
27161;SDS011;54464;50.558;9.704;2023-04-30T02:43:01;24.30;;;21.30;;
27161;SDS011;54464;50.558;9.704;2023-04-30T02:45:27;22.83;;;20.50;;
27161;SDS011;54464;50.558;9.704;2023-04-30T02:47:53;22.63;;;20.17;;
27161;SDS011;54464;50.558;9.704;2023-04-30T02:50:18;22.93;;;20.53;;
27161;SDS011;54464;50.558;9.704;2023-04-30T02:52:45;23.90;;;20.70;;
27161;SDS011;54464;50.558;9.704;2023-04-30T02:55:13;21.53;;;19.40;;
27161;SDS011;54464;50.558;9.704;2023-04-30T02:57:39;23.23;;;20.83;;
27161;SDS011;54464;50.558;9.704;2023-04-30T03:00:05;22.40;;;20.00;;
27161;SDS011;54464;50.558;9.704;2023-04-30T03:02:31;23.30;;;20.13;;
27161;SDS011;54464;50.558;9.704;2023-04-30T03:04:56;21.30;;;18.97;;
27161;SDS011;54464;50.558;9.704;2023-04-30T03:07:22;22.53;;;19.73;;
27161;SDS011;54464;50.558;9.704;2023-04-30T03:09:47;23.40;;;21.00;;
27161;SDS011;54464;50.558;9.704;2023-04-30T03:12:13;23.90;;;21.40;;
27161;SDS011;54464;50.558;9.704;2023-04-30T03:14:39;22.73;;;20.23;;
27161;SDS011;54464;50.558;9.704;2023-04-30T03:17:05;24.00;;;21.50;;
27161;SDS011;54464;50.558;9.704;2023-04-30T03:19:31;23.00;;;20.47;;
27161;SDS011;54464;50.558;9.704;2023-04-30T03:21:56;22.40;;;19.90;;
27161;SDS011;54464;50.558;9.704;2023-04-30T03:24:22;23.17;;;20.67;;
27161;SDS011;54464;50.558;9.704;2023-04-30T03:26:49;22.90;;;20.07;;
27161;SDS011;54464;50.558;9.704;2023-04-30T03:29:15;23.23;;;20.70;;
27161;SDS011;54464;50.558;9.704;2023-04-30T03:31:41;22.77;;;20.37;;
27161;SDS011;54464;50.558;9.704;2023-04-30T03:34:06;22.13;;;19.73;;
27161;SDS011;54464;50.558;9.704;2023-04-30T03:36:32;21.83;;;19.60;;
27161;SDS011;54464;50.558;9.704;2023-04-30T03:42:12;22.90;;;20.50;;
27161;SDS011;54464;50.558;9.704;2023-04-30T03:44:38;22.33;;;20.00;;
27161;SDS011;54464;50.558;9.704;2023-04-30T03:47:03;23.43;;;21.00;;
27161;SDS011;54464;50.558;9.704;2023-04-30T03:49:35;24.10;;;21.50;;
27161;SDS011;54464;50.558;9.704;2023-04-30T03:52:01;22.93;;;20.33;;
27161;SDS011;54464;50.558;9.704;2023-04-30T03:54:27;22.67;;;20.07;;
27161;SDS011;54464;50.558;9.704;2023-04-30T03:56:53;25.93;;;20.80;;
27161;SDS011;54464;50.558;9.704;2023-04-30T03:59:19;22.97;;;20.53;;
27161;SDS011;54464;50.558;9.704;2023-04-30T04:01:44;23.10;;;20.60;;
27161;SDS011;54464;50.558;9.704;2023-04-30T04:04:10;23.23;;;20.57;;
27161;SDS011;54464;50.558;9.704;2023-04-30T04:06:36;23.60;;;20.77;;
27161;SDS011;54464;50.558;9.704;2023-04-30T04:09:01;22.47;;;20.07;;
27161;SDS011;54464;50.558;9.704;2023-04-30T04:11:28;23.47;;;19.63;;
27161;SDS011;54464;50.558;9.704;2023-04-30T04:13:53;22.33;;;19.93;;
27161;SDS011;54464;50.558;9.704;2023-04-30T04:16:19;20.23;;;18.13;;
27161;SDS011;54464;50.558;9.704;2023-04-30T04:18:46;21.73;;;18.93;;
27161;SDS011;54464;50.558;9.704;2023-04-30T04:21:11;20.50;;;18.23;;
27161;SDS011;54464;50.558;9.704;2023-04-30T04:23:37;19.77;;;17.73;;
27161;SDS011;54464;50.558;9.704;2023-04-30T04:26:02;20.90;;;18.13;;
27161;SDS011;54464;50.558;9.704;2023-04-30T04:28:28;21.17;;;19.03;;
27161;SDS011;54464;50.558;9.704;2023-04-30T04:30:54;20.80;;;18.67;;
27161;SDS011;54464;50.558;9.704;2023-04-30T04:33:19;19.63;;;17.50;;
27161;SDS011;54464;50.558;9.704;2023-04-30T04:35:45;19.30;;;16.50;;
27161;SDS011;54464;50.558;9.704;2023-04-30T04:38:11;18.80;;;16.90;;
27161;SDS011;54464;50.558;9.704;2023-04-30T04:40:37;19.47;;;17.37;;
27161;SDS011;54464;50.558;9.704;2023-04-30T04:43:02;23.17;;;19.23;;
27161;SDS011;54464;50.558;9.704;2023-04-30T04:45:28;23.10;;;19.53;;
27161;SDS011;54464;50.558;9.704;2023-04-30T04:47:54;25.07;;;20.67;;
27161;SDS011;54464;50.558;9.704;2023-04-30T04:50:19;21.83;;;19.30;;
27161;SDS011;54464;50.558;9.704;2023-04-30T04:52:45;20.83;;;17.97;;
27161;SDS011;54464;50.558;9.704;2023-04-30T04:55:10;20.60;;;18.13;;
27161;SDS011;54464;50.558;9.704;2023-04-30T04:57:36;22.77;;;17.30;;
27161;SDS011;54464;50.558;9.704;2023-04-30T05:00:01;24.43;;;18.03;;
27161;SDS011;54464;50.558;9.704;2023-04-30T05:02:30;33.63;;;17.27;;
27161;SDS011;54464;50.558;9.704;2023-04-30T05:04:55;39.10;;;17.67;;
27161;SDS011;54464;50.558;9.704;2023-04-30T05:07:21;48.07;;;19.03;;
27161;SDS011;54464;50.558;9.704;2023-04-30T05:09:47;31.13;;;17.93;;
27161;SDS011;54464;50.558;9.704;2023-04-30T05:12:13;68.13;;;18.67;;
27161;SDS011;54464;50.558;9.704;2023-04-30T05:14:39;25.13;;;18.17;;
27161;SDS011;54464;50.558;9.704;2023-04-30T05:17:05;29.77;;;17.97;;
27161;SDS011;54464;50.558;9.704;2023-04-30T05:19:31;100.40;;;18.80;;
27161;SDS011;54464;50.558;9.704;2023-04-30T05:21:57;32.90;;;17.13;;
27161;SDS011;54464;50.558;9.704;2023-04-30T05:24:25;38.87;;;17.20;;
27161;SDS011;54464;50.558;9.704;2023-04-30T05:26:51;42.70;;;21.27;;
27161;SDS011;54464;50.558;9.704;2023-04-30T05:29:16;60.00;;;24.07;;
27161;SDS011;54464;50.558;9.704;2023-04-30T05:31:42;36.37;;;29.47;;
27161;SDS011;54464;50.558;9.704;2023-04-30T05:34:07;30.30;;;22.60;;
27161;SDS011;54464;50.558;9.704;2023-04-30T05:36:36;23.63;;;17.37;;
27161;SDS011;54464;50.558;9.704;2023-04-30T05:39:01;17.70;;;15.97;;
27161;SDS011;54464;50.558;9.704;2023-04-30T05:41:28;17.87;;;16.07;;
27161;SDS011;54464;50.558;9.704;2023-04-30T05:43:54;18.27;;;16.47;;
27161;SDS011;54464;50.558;9.704;2023-04-30T05:46:19;17.80;;;16.00;;
27161;SDS011;54464;50.558;9.704;2023-04-30T05:48:45;19.10;;;17.03;;
27161;SDS011;54464;50.558;9.704;2023-04-30T05:51:10;18.57;;;16.67;;
27161;SDS011;54464;50.558;9.704;2023-04-30T05:53:36;17.07;;;15.23;;
27161;SDS011;54464;50.558;9.704;2023-04-30T05:56:01;16.97;;;15.27;;
27161;SDS011;54464;50.558;9.704;2023-04-30T05:58:27;17.80;;;15.97;;
27161;SDS011;54464;50.558;9.704;2023-04-30T06:00:52;17.93;;;15.50;;
27161;SDS011;54464;50.558;9.704;2023-04-30T06:03:18;17.40;;;15.60;;
27161;SDS011;54464;50.558;9.704;2023-04-30T06:05:44;17.57;;;15.43;;
27161;SDS011;54464;50.558;9.704;2023-04-30T06:08:10;17.27;;;15.47;;
27161;SDS011;54464;50.558;9.704;2023-04-30T06:10:36;18.07;;;14.97;;
27161;SDS011;54464;50.558;9.704;2023-04-30T06:13:02;17.73;;;15.83;;
27161;SDS011;54464;50.558;9.704;2023-04-30T06:15:28;17.33;;;14.97;;
27161;SDS011;54464;50.558;9.704;2023-04-30T06:17:54;17.87;;;15.97;;
27161;SDS011;54464;50.558;9.704;2023-04-30T06:20:20;18.37;;;16.40;;
27161;SDS011;54464;50.558;9.704;2023-04-30T06:22:45;20.97;;;17.30;;
27161;SDS011;54464;50.558;9.704;2023-04-30T06:25:11;21.03;;;18.10;;
27161;SDS011;54464;50.558;9.704;2023-04-30T06:27:36;21.33;;;17.23;;
27161;SDS011;54464;50.558;9.704;2023-04-30T06:30:02;19.47;;;17.17;;
27161;SDS011;54464;50.558;9.704;2023-04-30T06:32:28;18.27;;;15.30;;
27161;SDS011;54464;50.558;9.704;2023-04-30T06:34:54;18.37;;;15.90;;
27161;SDS011;54464;50.558;9.704;2023-04-30T06:37:19;20.30;;;16.00;;
27161;SDS011;54464;50.558;9.704;2023-04-30T06:39:45;17.10;;;15.20;;
27161;SDS011;54464;50.558;9.704;2023-04-30T06:42:11;17.23;;;15.07;;
27161;SDS011;54464;50.558;9.704;2023-04-30T06:44:36;17.63;;;14.73;;
27161;SDS011;54464;50.558;9.704;2023-04-30T06:47:02;18.53;;;15.13;;
27161;SDS011;54464;50.558;9.704;2023-04-30T06:49:27;18.40;;;15.50;;
27161;SDS011;54464;50.558;9.704;2023-04-30T06:51:53;18.97;;;15.00;;
27161;SDS011;54464;50.558;9.704;2023-04-30T06:54:20;17.97;;;15.40;;
27161;SDS011;54464;50.558;9.704;2023-04-30T06:56:46;17.87;;;14.63;;
27161;SDS011;54464;50.558;9.704;2023-04-30T06:59:12;16.97;;;14.70;;
27161;SDS011;54464;50.558;9.704;2023-04-30T07:01:38;16.10;;;14.33;;
27161;SDS011;54464;50.558;9.704;2023-04-30T07:04:04;16.00;;;14.30;;
27161;SDS011;54464;50.558;9.704;2023-04-30T07:06:30;15.30;;;13.70;;
27161;SDS011;54464;50.558;9.704;2023-04-30T07:08:56;14.83;;;13.13;;
27161;SDS011;54464;50.558;9.704;2023-04-30T07:11:21;14.63;;;12.47;;
27161;SDS011;54464;50.558;9.704;2023-04-30T07:13:47;15.53;;;13.03;;
27161;SDS011;54464;50.558;9.704;2023-04-30T07:16:12;15.77;;;12.47;;
27161;SDS011;54464;50.558;9.704;2023-04-30T07:18:40;12.77;;;11.23;;
27161;SDS011;54464;50.558;9.704;2023-04-30T07:21:06;13.57;;;11.23;;
27161;SDS011;54464;50.558;9.704;2023-04-30T07:23:32;11.90;;;10.40;;
27161;SDS011;54464;50.558;9.704;2023-04-30T07:25:58;11.67;;;9.60;;
27161;SDS011;54464;50.558;9.704;2023-04-30T07:28:24;12.90;;;9.97;;
27161;SDS011;54464;50.558;9.704;2023-04-30T07:30:49;9.70;;;8.33;;
27161;SDS011;54464;50.558;9.704;2023-04-30T07:33:15;10.30;;;8.77;;
27161;SDS011;54464;50.558;9.704;2023-04-30T07:35:41;10.97;;;9.07;;
27161;SDS011;54464;50.558;9.704;2023-04-30T07:38:06;9.23;;;8.33;;
27161;SDS011;54464;50.558;9.704;2023-04-30T07:40:32;9.33;;;8.43;;
27161;SDS011;54464;50.558;9.704;2023-04-30T07:42:57;10.07;;;7.97;;
27161;SDS011;54464;50.558;9.704;2023-04-30T07:45:23;10.37;;;8.27;;
27161;SDS011;54464;50.558;9.704;2023-04-30T07:47:49;8.50;;;7.33;;
27161;SDS011;54464;50.558;9.704;2023-04-30T07:50:14;10.23;;;7.33;;
27161;SDS011;54464;50.558;9.704;2023-04-30T07:52:41;10.17;;;7.33;;
27161;SDS011;54464;50.558;9.704;2023-04-30T07:55:07;9.80;;;7.47;;
27161;SDS011;54464;50.558;9.704;2023-04-30T07:57:33;7.30;;;6.60;;
27161;SDS011;54464;50.558;9.704;2023-04-30T07:59:58;6.63;;;5.93;;
27161;SDS011;54464;50.558;9.704;2023-04-30T08:02:24;6.33;;;5.70;;
27161;SDS011;54464;50.558;9.704;2023-04-30T08:04:49;6.97;;;5.77;;
27161;SDS011;54464;50.558;9.704;2023-04-30T08:07:15;7.53;;;5.40;;
27161;SDS011;54464;50.558;9.704;2023-04-30T08:09:41;6.60;;;5.37;;
27161;SDS011;54464;50.558;9.704;2023-04-30T08:12:07;6.13;;;4.80;;
27161;SDS011;54464;50.558;9.704;2023-04-30T08:14:33;6.33;;;4.83;;
27161;SDS011;54464;50.558;9.704;2023-04-30T08:16:58;8.23;;;5.00;;
27161;SDS011;54464;50.558;9.704;2023-04-30T08:19:25;6.03;;;5.43;;
27161;SDS011;54464;50.558;9.704;2023-04-30T08:21:51;7.80;;;5.43;;
27161;SDS011;54464;50.558;9.704;2023-04-30T08:24:16;5.37;;;4.20;;
27161;SDS011;54464;50.558;9.704;2023-04-30T08:26:42;5.77;;;4.80;;
27161;SDS011;54464;50.558;9.704;2023-04-30T08:29:08;7.17;;;4.70;;
27161;SDS011;54464;50.558;9.704;2023-04-30T08:31:34;6.63;;;4.50;;
27161;SDS011;54464;50.558;9.704;2023-04-30T08:33:59;5.30;;;3.77;;
27161;SDS011;54464;50.558;9.704;2023-04-30T08:36:25;4.57;;;4.10;;
27161;SDS011;54464;50.558;9.704;2023-04-30T08:38:51;6.23;;;3.83;;
27161;SDS011;54464;50.558;9.704;2023-04-30T08:41:17;4.50;;;3.60;;
27161;SDS011;54464;50.558;9.704;2023-04-30T08:43:46;3.83;;;3.20;;
27161;SDS011;54464;50.558;9.704;2023-04-30T08:46:16;3.43;;;2.97;;
27161;SDS011;54464;50.558;9.704;2023-04-30T08:48:43;5.00;;;2.97;;
27161;SDS011;54464;50.558;9.704;2023-04-30T08:51:10;2.87;;;2.57;;
27161;SDS011;54464;50.558;9.704;2023-04-30T08:53:35;3.30;;;2.43;;
27161;SDS011;54464;50.558;9.704;2023-04-30T08:56:04;3.13;;;2.40;;
27161;SDS011;54464;50.558;9.704;2023-04-30T08:58:30;2.90;;;2.00;;
27161;SDS011;54464;50.558;9.704;2023-04-30T09:00:57;3.13;;;1.77;;
27161;SDS011;54464;50.558;9.704;2023-04-30T09:03:23;2.80;;;1.80;;
27161;SDS011;54464;50.558;9.704;2023-04-30T09:05:49;3.37;;;1.77;;
27161;SDS011;54464;50.558;9.704;2023-04-30T09:08:18;2.30;;;1.70;;
27161;SDS011;54464;50.558;9.704;2023-04-30T09:13:49;2.27;;;1.77;;
27161;SDS011;54464;50.558;9.704;2023-04-30T09:16:16;1.57;;;1.47;;
27161;SDS011;54464;50.558;9.704;2023-04-30T09:18:42;1.77;;;1.40;;
27161;SDS011;54464;50.558;9.704;2023-04-30T09:21:08;2.13;;;1.60;;
27161;SDS011;54464;50.558;9.704;2023-04-30T09:23:34;1.97;;;1.30;;
27161;SDS011;54464;50.558;9.704;2023-04-30T09:25:59;1.63;;;1.30;;
27161;SDS011;54464;50.558;9.704;2023-04-30T09:28:25;1.43;;;1.17;;
27161;SDS011;54464;50.558;9.704;2023-04-30T09:30:52;2.53;;;1.23;;
27161;SDS011;54464;50.558;9.704;2023-04-30T09:33:20;1.80;;;1.17;;
27161;SDS011;54464;50.558;9.704;2023-04-30T09:35:47;3.17;;;1.47;;
27161;SDS011;54464;50.558;9.704;2023-04-30T09:38:26;1.67;;;1.27;;
27161;SDS011;54464;50.558;9.704;2023-04-30T09:40:53;1.37;;;1.20;;
27161;SDS011;54464;50.558;9.704;2023-04-30T09:45:09;2.33;;;1.10;;
27161;SDS011;54464;50.558;9.704;2023-04-30T09:47:36;1.57;;;1.00;;
27161;SDS011;54464;50.558;9.704;2023-04-30T09:50:04;0.70;;;0.70;;
27161;SDS011;54464;50.558;9.704;2023-04-30T09:52:30;0.97;;;0.90;;
27161;SDS011;54464;50.558;9.704;2023-04-30T09:54:56;1.17;;;1.00;;
27161;SDS011;54464;50.558;9.704;2023-04-30T09:57:22;4.40;;;0.90;;
27161;SDS011;54464;50.558;9.704;2023-04-30T09:59:48;0.80;;;0.80;;
27161;SDS011;54464;50.558;9.704;2023-04-30T10:02:17;1.67;;;0.87;;
27161;SDS011;54464;50.558;9.704;2023-04-30T10:04:44;1.93;;;0.80;;
27161;SDS011;54464;50.558;9.704;2023-04-30T10:07:15;1.00;;;0.80;;
27161;SDS011;54464;50.558;9.704;2023-04-30T10:12:18;2.37;;;0.90;;
27161;SDS011;54464;50.558;9.704;2023-04-30T10:14:53;1.43;;;0.73;;
27161;SDS011;54464;50.558;9.704;2023-04-30T10:17:23;0.57;;;0.33;;
27161;SDS011;54464;50.558;9.704;2023-04-30T10:19:52;1.37;;;0.60;;
27161;SDS011;54464;50.558;9.704;2023-04-30T10:22:21;1.20;;;0.80;;
27161;SDS011;54464;50.558;9.704;2023-04-30T10:24:47;1.10;;;0.60;;
27161;SDS011;54464;50.558;9.704;2023-04-30T10:27:14;0.97;;;0.77;;
27161;SDS011;54464;50.558;9.704;2023-04-30T10:29:39;0.70;;;0.50;;
27161;SDS011;54464;50.558;9.704;2023-04-30T10:32:05;1.73;;;0.50;;
27161;SDS011;54464;50.558;9.704;2023-04-30T10:37:08;2.80;;;2.17;;
27161;SDS011;54464;50.558;9.704;2023-04-30T10:39:57;1.73;;;0.70;;
27161;SDS011;54464;50.558;9.704;2023-04-30T10:42:23;2.93;;;2.03;;
27161;SDS011;54464;50.558;9.704;2023-04-30T10:44:49;3.40;;;1.80;;
27161;SDS011;54464;50.558;9.704;2023-04-30T10:47:15;2.63;;;1.20;;
27161;SDS011;54464;50.558;9.704;2023-04-30T10:49:46;0.90;;;0.70;;
27161;SDS011;54464;50.558;9.704;2023-04-30T10:52:13;1.27;;;1.00;;
27161;SDS011;54464;50.558;9.704;2023-04-30T10:54:51;2.73;;;0.80;;
27161;SDS011;54464;50.558;9.704;2023-04-30T10:57:17;1.10;;;0.90;;
27161;SDS011;54464;50.558;9.704;2023-04-30T11:00:45;1.10;;;0.90;;
27161;SDS011;54464;50.558;9.704;2023-04-30T11:02:43;0.70;;;0.60;;
27161;SDS011;54464;50.558;9.704;2023-04-30T11:05:11;1.83;;;0.80;;
27161;SDS011;54464;50.558;9.704;2023-04-30T11:07:51;1.27;;;0.70;;
27161;SDS011;54464;50.558;9.704;2023-04-30T11:10:21;1.20;;;0.80;;
27161;SDS011;54464;50.558;9.704;2023-04-30T11:12:49;2.37;;;1.10;;
27161;SDS011;54464;50.558;9.704;2023-04-30T11:15:20;0.90;;;0.67;;
27161;SDS011;54464;50.558;9.704;2023-04-30T11:17:48;1.60;;;1.10;;
27161;SDS011;54464;50.558;9.704;2023-04-30T11:20:19;1.23;;;0.80;;
27161;SDS011;54464;50.558;9.704;2023-04-30T11:25:41;1.23;;;0.90;;
27161;SDS011;54464;50.558;9.704;2023-04-30T11:28:12;3.00;;;0.80;;
27161;SDS011;54464;50.558;9.704;2023-04-30T11:30:41;1.60;;;0.80;;
27161;SDS011;54464;50.558;9.704;2023-04-30T11:33:18;1.20;;;0.50;;
27161;SDS011;54464;50.558;9.704;2023-04-30T11:35:45;2.37;;;0.93;;
27161;SDS011;54464;50.558;9.704;2023-04-30T11:38:13;1.37;;;0.70;;
27161;SDS011;54464;50.558;9.704;2023-04-30T11:40:41;2.10;;;0.83;;
27161;SDS011;54464;50.558;9.704;2023-04-30T11:43:07;1.30;;;0.70;;
27161;SDS011;54464;50.558;9.704;2023-04-30T11:46:04;1.53;;;0.80;;
27161;SDS011;54464;50.558;9.704;2023-04-30T11:48:31;0.60;;;0.60;;
27161;SDS011;54464;50.558;9.704;2023-04-30T11:51:17;1.00;;;0.80;;
27161;SDS011;54464;50.558;9.704;2023-04-30T11:53:45;2.43;;;1.00;;
27161;SDS011;54464;50.558;9.704;2023-04-30T11:56:11;1.43;;;0.70;;
27161;SDS011;54464;50.558;9.704;2023-04-30T11:58:37;2.07;;;1.13;;
27161;SDS011;54464;50.558;9.704;2023-04-30T12:01:04;0.70;;;0.70;;
27161;SDS011;54464;50.558;9.704;2023-04-30T12:03:31;0.90;;;0.90;;
27161;SDS011;54464;50.558;9.704;2023-04-30T12:05:57;1.27;;;0.90;;
27161;SDS011;54464;50.558;9.704;2023-04-30T12:08:23;1.57;;;1.00;;
27161;SDS011;54464;50.558;9.704;2023-04-30T12:10:49;1.00;;;0.90;;
27161;SDS011;54464;50.558;9.704;2023-04-30T12:13:14;0.80;;;0.80;;
27161;SDS011;54464;50.558;9.704;2023-04-30T12:15:40;1.33;;;0.80;;
27161;SDS011;54464;50.558;9.704;2023-04-30T12:18:10;1.90;;;0.70;;
27161;SDS011;54464;50.558;9.704;2023-04-30T12:20:37;1.20;;;0.88;;
27161;SDS011;54464;50.558;9.704;2023-04-30T12:23:04;0.82;;;0.68;;
27161;SDS011;54464;50.558;9.704;2023-04-30T12:25:38;1.00;;;0.90;;
27161;SDS011;54464;50.558;9.704;2023-04-30T12:28:05;0.95;;;0.85;;
27161;SDS011;54464;50.558;9.704;2023-04-30T12:30:34;0.80;;;0.80;;
27161;SDS011;54464;50.558;9.704;2023-04-30T12:33:00;1.45;;;0.88;;
27161;SDS011;54464;50.558;9.704;2023-04-30T12:35:28;0.75;;;0.73;;
27161;SDS011;54464;50.558;9.704;2023-04-30T12:38:02;0.60;;;0.60;;
27161;SDS011;54464;50.558;9.704;2023-04-30T12:40:32;2.83;;;0.80;;
27161;SDS011;54464;50.558;9.704;2023-04-30T12:42:58;0.95;;;0.80;;
27161;SDS011;54464;50.558;9.704;2023-04-30T12:45:43;0.80;;;0.70;;
27161;SDS011;54464;50.558;9.704;2023-04-30T12:48:16;0.93;;;0.75;;
27161;SDS011;54464;50.558;9.704;2023-04-30T12:50:46;1.55;;;0.80;;
27161;SDS011;54464;50.558;9.704;2023-04-30T12:53:18;0.70;;;0.60;;
27161;SDS011;54464;50.558;9.704;2023-04-30T12:56:02;0.60;;;0.60;;
27161;SDS011;54464;50.558;9.704;2023-04-30T12:58:33;0.70;;;0.70;;
27161;SDS011;54464;50.558;9.704;2023-04-30T13:00:59;1.45;;;0.68;;
27161;SDS011;54464;50.558;9.704;2023-04-30T13:03:25;2.92;;;0.80;;
27161;SDS011;54464;50.558;9.704;2023-04-30T13:05:51;1.70;;;0.70;;
27161;SDS011;54464;50.558;9.704;2023-04-30T13:08:18;0.60;;;0.60;;
27161;SDS011;54464;50.558;9.704;2023-04-30T13:10:44;0.60;;;0.60;;
27161;SDS011;54464;50.558;9.704;2023-04-30T13:13:12;0.60;;;0.60;;
27161;SDS011;54464;50.558;9.704;2023-04-30T13:15:39;0.70;;;0.57;;
27161;SDS011;54464;50.558;9.704;2023-04-30T13:18:06;0.65;;;0.50;;
27161;SDS011;54464;50.558;9.704;2023-04-30T13:20:36;0.80;;;0.40;;
27161;SDS011;54464;50.558;9.704;2023-04-30T13:23:02;0.70;;;0.60;;
27161;SDS011;54464;50.558;9.704;2023-04-30T13:25:29;1.27;;;0.52;;
27161;SDS011;54464;50.558;9.704;2023-04-30T13:27:56;1.08;;;0.47;;
27161;SDS011;54464;50.558;9.704;2023-04-30T13:30:22;0.50;;;0.50;;
27161;SDS011;54464;50.558;9.704;2023-04-30T13:32:48;0.95;;;0.55;;
27161;SDS011;54464;50.558;9.704;2023-04-30T13:35:14;0.60;;;0.60;;
27161;SDS011;54464;50.558;9.704;2023-04-30T13:37:39;0.63;;;0.57;;
27161;SDS011;54464;50.558;9.704;2023-04-30T13:40:06;0.73;;;0.60;;
27161;SDS011;54464;50.558;9.704;2023-04-30T13:42:32;0.73;;;0.70;;
27161;SDS011;54464;50.558;9.704;2023-04-30T13:44:58;0.93;;;0.50;;
27161;SDS011;54464;50.558;9.704;2023-04-30T13:47:23;0.90;;;0.60;;
27161;SDS011;54464;50.558;9.704;2023-04-30T13:49:49;0.70;;;0.70;;
27161;SDS011;54464;50.558;9.704;2023-04-30T13:52:15;1.30;;;0.80;;
27161;SDS011;54464;50.558;9.704;2023-04-30T13:54:40;0.97;;;0.80;;
27161;SDS011;54464;50.558;9.704;2023-04-30T13:57:06;2.70;;;0.90;;
27161;SDS011;54464;50.558;9.704;2023-04-30T13:59:32;0.80;;;0.80;;
27161;SDS011;54464;50.558;9.704;2023-04-30T14:01:58;1.37;;;0.60;;
27161;SDS011;54464;50.558;9.704;2023-04-30T14:04:24;2.03;;;0.70;;
27161;SDS011;54464;50.558;9.704;2023-04-30T14:06:49;0.80;;;0.70;;
27161;SDS011;54464;50.558;9.704;2023-04-30T14:09:16;0.90;;;0.70;;
27161;SDS011;54464;50.558;9.704;2023-04-30T14:11:42;0.80;;;0.80;;
27161;SDS011;54464;50.558;9.704;2023-04-30T14:14:08;0.93;;;0.70;;
27161;SDS011;54464;50.558;9.704;2023-04-30T14:16:33;0.60;;;0.60;;
27161;SDS011;54464;50.558;9.704;2023-04-30T14:18:59;1.00;;;0.60;;
27161;SDS011;54464;50.558;9.704;2023-04-30T14:21:24;0.80;;;0.60;;
27161;SDS011;54464;50.558;9.704;2023-04-30T14:23:52;1.10;;;0.60;;
27161;SDS011;54464;50.558;9.704;2023-04-30T14:26:18;0.50;;;0.50;;
27161;SDS011;54464;50.558;9.704;2023-04-30T14:28:45;0.63;;;0.63;;
27161;SDS011;54464;50.558;9.704;2023-04-30T14:31:11;0.70;;;0.60;;
27161;SDS011;54464;50.558;9.704;2023-04-30T14:33:37;0.73;;;0.70;;
27161;SDS011;54464;50.558;9.704;2023-04-30T14:36:02;0.90;;;0.70;;
27161;SDS011;54464;50.558;9.704;2023-04-30T14:38:28;1.30;;;0.73;;
27161;SDS011;54464;50.558;9.704;2023-04-30T14:40:54;0.90;;;0.50;;
27161;SDS011;54464;50.558;9.704;2023-04-30T14:43:20;0.80;;;0.80;;
27161;SDS011;54464;50.558;9.704;2023-04-30T14:45:45;0.70;;;0.70;;
27161;SDS011;54464;50.558;9.704;2023-04-30T14:48:11;0.70;;;0.70;;
27161;SDS011;54464;50.558;9.704;2023-04-30T14:50:37;0.90;;;0.80;;
27161;SDS011;54464;50.558;9.704;2023-04-30T14:53:03;0.90;;;0.70;;
27161;SDS011;54464;50.558;9.704;2023-04-30T14:55:29;1.17;;;0.70;;
27161;SDS011;54464;50.558;9.704;2023-04-30T14:57:55;1.13;;;0.80;;
27161;SDS011;54464;50.558;9.704;2023-04-30T15:00:20;0.83;;;0.70;;
27161;SDS011;54464;50.558;9.704;2023-04-30T15:02:46;1.50;;;0.70;;
27161;SDS011;54464;50.558;9.704;2023-04-30T15:05:12;0.70;;;0.60;;
27161;SDS011;54464;50.558;9.704;2023-04-30T15:07:37;1.73;;;0.70;;
27161;SDS011;54464;50.558;9.704;2023-04-30T15:10:03;0.83;;;0.80;;